createdAt,value
2022-09-23T00:02:02.184Z,101593.44
2022-09-23T00:04:32.034Z,101603.44
2022-09-23T00:07:00.002Z,101588.97
2022-09-23T00:09:30.096Z,101599.00
2022-09-23T00:12:00.066Z,101592.06
2022-09-23T00:14:28.269Z,101597.31
2022-09-23T00:16:59.770Z,101597.13
2022-09-23T00:19:29.666Z,101590.25
2022-09-23T00:21:57.613Z,101596.31
2022-09-23T00:24:34.490Z,101584.81
2022-09-23T00:27:04.726Z,101580.56
2022-09-23T00:29:32.894Z,101567.72
2022-09-23T00:32:04.495Z,101588.22
2022-09-23T00:34:34.728Z,101568.72
2022-09-23T00:37:02.602Z,101583.72
2022-09-23T00:39:32.750Z,101573.69
2022-09-23T00:42:04.628Z,101570.94
2022-09-23T00:44:51.849Z,101559.81
2022-09-23T00:47:26.128Z,101569.91
2022-09-23T00:50:03.847Z,101569.91
2022-09-23T00:52:34.625Z,101574.16
2022-09-23T00:55:08.497Z,101586.25
2022-09-23T00:57:41.382Z,101572.53
2022-09-23T01:00:12.957Z,101570.41
2022-09-23T01:02:42.514Z,101571.06
2022-09-23T01:05:11.018Z,101576.31
2022-09-23T01:07:40.613Z,101560.00
2022-09-23T01:10:13.516Z,101563.34
2022-09-23T01:13:11.221Z,101566.22
2022-09-23T01:15:47.138Z,101562.81
2022-09-23T01:18:28.421Z,101563.72
2022-09-23T01:21:16.722Z,101557.66
2022-09-23T01:24:19.796Z,101557.91
2022-09-23T01:27:00.279Z,101556.63
2022-09-23T01:29:50.525Z,101555.84
2022-09-23T01:32:31.296Z,101536.34
2022-09-23T01:35:13.736Z,101543.28
2022-09-23T01:37:51.169Z,101551.31
2022-09-23T01:40:26.737Z,101549.59
2022-09-23T01:42:59.253Z,101553.84
2022-09-23T01:45:34.729Z,101548.03
2022-09-23T01:48:19.007Z,101549.19
2022-09-23T01:50:59.656Z,101537.28
2022-09-23T01:53:37.927Z,101556.91
2022-09-23T01:56:12.066Z,101538.81
2022-09-23T01:58:46.353Z,101541.38
2022-09-23T02:01:20.507Z,101537.78
2022-09-23T02:03:56.410Z,101535.03
2022-09-23T02:06:29.759Z,101543.28
2022-09-23T02:09:03.111Z,101538.09
2022-09-23T02:11:37.320Z,101548.25
2022-09-23T02:14:14.844Z,101545.50
2022-09-23T02:16:49.717Z,101522.16
2022-09-23T02:19:27.165Z,101541.84
2022-09-23T02:22:02.482Z,101523.13
2022-09-23T02:24:34.733Z,101530.69
2022-09-23T02:27:15.684Z,101526.66
2022-09-23T02:29:52.730Z,101516.56
2022-09-23T02:32:24.940Z,101530.91
2022-09-23T02:35:02.796Z,101523.19
2022-09-23T02:37:41.114Z,101530.81
2022-09-23T02:40:15.826Z,101531.84
2022-09-23T02:42:52.650Z,101510.59
2022-09-23T02:45:22.715Z,101525.03
2022-09-23T02:47:59.902Z,101517.53
2022-09-23T02:50:32.068Z,101517.38
2022-09-23T02:53:02.991Z,101523.19
2022-09-23T02:55:33.497Z,101522.28
2022-09-23T02:58:02.097Z,101525.16
2022-09-23T03:00:42.770Z,101521.84
2022-09-23T03:03:27.976Z,101510.38
2022-09-23T03:06:05.889Z,101518.63
2022-09-23T03:08:44.735Z,101505.63
2022-09-23T03:11:17.036Z,101498.94
2022-09-23T03:14:05.205Z,101501.66
2022-09-23T03:16:43.991Z,101496.38
2022-09-23T03:19:24.517Z,101503.31
2022-09-23T03:22:04.767Z,101496.50
2022-09-23T03:24:35.665Z,101501.91
2022-09-23T03:27:13.612Z,101490.41
2022-09-23T03:29:45.603Z,101494.78
2022-09-23T03:32:19.922Z,101490.03
2022-09-23T03:34:50.433Z,101489.25
2022-09-23T03:37:24.632Z,101486.88
2022-09-23T03:39:55.782Z,101473.72
2022-09-23T03:42:29.002Z,101478.53
2022-09-23T03:44:58.461Z,101464.28
2022-09-23T03:47:31.180Z,101476.38
2022-09-23T03:49:59.137Z,101474.13
2022-09-23T03:52:29.031Z,101486.44
2022-09-23T03:55:00.822Z,101479.84
2022-09-23T03:57:28.821Z,101479.84
2022-09-23T03:59:56.653Z,101473.72
2022-09-23T04:02:28.735Z,101476.31
2022-09-23T04:04:57.288Z,101455.00
2022-09-23T04:07:25.586Z,101464.41
2022-09-23T04:09:57.780Z,101456.00
2022-09-23T04:12:25.770Z,101467.72
2022-09-23T04:14:53.645Z,101457.69
2022-09-23T04:17:25.868Z,101458.63
2022-09-23T04:19:53.840Z,101474.97
2022-09-23T04:22:22.523Z,101467.94
2022-09-23T04:24:54.231Z,101450.53
2022-09-23T04:27:23.424Z,101459.06
2022-09-23T04:29:51.672Z,101463.09
2022-09-23T04:32:23.756Z,101461.97
2022-09-23T04:34:51.600Z,101461.63
2022-09-23T04:37:19.454Z,101458.84
2022-09-23T04:39:51.189Z,101479.44
2022-09-23T04:42:19.053Z,101475.03
2022-09-23T04:44:48.288Z,101467.03
2022-09-23T04:47:21.084Z,101478.81
2022-09-23T04:49:48.938Z,101465.88
2022-09-23T04:52:16.803Z,101467.66
2022-09-23T04:54:48.611Z,101453.19
2022-09-23T04:57:16.412Z,101463.28
2022-09-23T04:59:45.313Z,101454.19
2022-09-23T05:02:18.210Z,101468.59
2022-09-23T05:04:46.093Z,101470.16
2022-09-23T05:07:14.101Z,101456.56
2022-09-23T05:09:46.006Z,101474.00
2022-09-23T05:12:13.896Z,101468.53
2022-09-23T05:14:41.705Z,101474.19
2022-09-23T05:17:13.707Z,101467.03
2022-09-23T05:19:42.900Z,101471.75
2022-09-23T05:22:10.688Z,101463.19
2022-09-23T05:24:42.703Z,101476.06
2022-09-23T05:27:10.468Z,101485.88
2022-09-23T05:29:38.615Z,101470.97
2022-09-23T05:32:06.701Z,101475.28
2022-09-23T05:34:36.727Z,101479.03
2022-09-23T05:37:06.229Z,101483.03
2022-09-23T05:39:35.986Z,101464.84
2022-09-23T05:42:06.370Z,101480.66
2022-09-23T05:44:34.197Z,101481.31
2022-09-23T05:47:04.609Z,101487.59
2022-09-23T05:49:58.639Z,101500.84
2022-09-23T05:52:27.405Z,101492.56
2022-09-23T05:54:57.563Z,101490.53
2022-09-23T05:57:25.594Z,101492.56
2022-09-23T05:59:53.421Z,101500.72
2022-09-23T06:02:23.532Z,101479.97
2022-09-23T06:04:51.526Z,101480.09
2022-09-23T06:07:19.773Z,101488.66
2022-09-23T06:09:50.942Z,101484.59
2022-09-23T06:12:22.113Z,101484.19
2022-09-23T06:14:50.744Z,101471.69
2022-09-23T06:17:20.426Z,101482.88
2022-09-23T06:19:50.427Z,101488.25
2022-09-23T06:22:18.741Z,101473.38
2022-09-23T06:24:49.861Z,101480.22
2022-09-23T06:27:19.832Z,101475.19
2022-09-23T06:29:47.679Z,101464.25
2022-09-23T06:32:18.168Z,101465.47
2022-09-23T06:34:51.827Z,101463.16
2022-09-23T06:37:21.867Z,101470.78
2022-09-23T06:39:54.857Z,101474.94
2022-09-23T06:42:24.607Z,101476.22
2022-09-23T06:44:54.605Z,101486.72
2022-09-23T06:47:22.476Z,101465.06
2022-09-23T06:49:53.869Z,101476.56
2022-09-23T06:52:23.946Z,101485.97
2022-09-23T06:54:53.346Z,101489.03
2022-09-23T06:57:21.232Z,101474.13
2022-09-23T06:59:52.118Z,101472.75
2022-09-23T07:02:20.209Z,101485.66
2022-09-23T07:04:48.199Z,101483.28
2022-09-23T07:07:16.458Z,101476.91
2022-09-23T07:09:44.442Z,101482.00
2022-09-23T07:12:14.155Z,101477.09
2022-09-23T07:14:42.189Z,101476.81
2022-09-23T07:17:10.098Z,101477.41
2022-09-23T07:19:38.333Z,101477.69
2022-09-23T07:22:06.771Z,101474.78
2022-09-23T07:24:35.101Z,101483.69
2022-09-23T07:27:03.459Z,101470.53
2022-09-23T07:29:45.691Z,101471.91
2022-09-23T07:32:16.787Z,101477.25
2022-09-23T07:34:47.195Z,101477.75
2022-09-23T07:37:15.151Z,101467.06
2022-09-23T07:39:45.664Z,101480.97
2022-09-23T07:42:14.593Z,101478.34
2022-09-23T07:44:47.954Z,101480.22
2022-09-23T07:47:15.900Z,101478.94
2022-09-23T07:49:46.883Z,101479.63
2022-09-23T07:52:14.833Z,101476.91
2022-09-23T07:54:43.165Z,101483.69
2022-09-23T07:57:14.605Z,101486.59
2022-09-23T07:59:44.546Z,101485.41
2022-09-23T08:02:16.469Z,101483.00
2022-09-23T08:04:44.330Z,101489.63
2022-09-23T08:07:14.986Z,101487.59
2022-09-23T08:09:44.802Z,101487.63
2022-09-23T08:12:18.913Z,101489.16
2022-09-23T08:14:48.400Z,101471.28
2022-09-23T08:17:18.478Z,101489.91
2022-09-23T08:19:51.178Z,101489.53
2022-09-23T08:22:19.880Z,101482.22
2022-09-23T08:24:48.295Z,101478.69
2022-09-23T08:27:18.215Z,101478.69
2022-09-23T08:29:49.618Z,101476.44
2022-09-23T08:32:17.423Z,101472.22
2022-09-23T08:34:47.494Z,101467.78
2022-09-23T08:37:17.442Z,101468.94
2022-09-23T08:39:45.260Z,101458.22
2022-09-23T08:42:26.391Z,101466.22
2022-09-23T08:44:58.865Z,101455.84
2022-09-23T08:47:46.734Z,101464.47
2022-09-23T08:50:19.195Z,101456.03
2022-09-23T08:52:54.278Z,101449.66
2022-09-23T08:55:28.577Z,101456.31
2022-09-23T08:58:26.448Z,101447.81
2022-09-23T09:01:07.922Z,101456.03
2022-09-23T09:03:45.988Z,101456.53
2022-09-23T09:06:18.980Z,101462.59
2022-09-23T09:08:57.762Z,101457.84
2022-09-23T09:11:34.153Z,101452.09
2022-09-23T09:14:13.015Z,101453.75
2022-09-23T09:17:00.044Z,101453.69
2022-09-23T09:19:54.105Z,101455.28
2022-09-23T09:22:24.984Z,101461.06
2022-09-23T09:25:04.792Z,101467.53
2022-09-23T09:27:32.696Z,101459.38
2022-09-23T09:30:02.969Z,101457.78
2022-09-23T09:32:44.125Z,101453.84
2022-09-23T09:35:25.152Z,101441.44
2022-09-23T09:37:54.793Z,101454.78
2022-09-23T09:40:25.554Z,101462.97
2022-09-23T09:42:53.497Z,101458.06
2022-09-23T09:45:33.501Z,101446.78
2022-09-23T09:48:12.017Z,101446.97
2022-09-23T09:50:51.053Z,101443.91
2022-09-23T09:53:25.572Z,101451.44
2022-09-23T09:56:05.317Z,101436.72
2022-09-23T09:58:46.044Z,101448.56
2022-09-23T10:01:25.201Z,101444.41
2022-09-23T10:03:59.707Z,101443.59
2022-09-23T10:06:31.617Z,101440.72
2022-09-23T10:09:19.338Z,101440.53
2022-09-23T10:12:13.962Z,101437.78
2022-09-23T10:14:44.578Z,101434.97
2022-09-23T10:17:19.035Z,101427.91
2022-09-23T10:19:52.445Z,101418.06
2022-09-23T10:22:28.365Z,101433.63
2022-09-23T10:25:03.300Z,101430.31
2022-09-23T10:27:33.666Z,101431.19
2022-09-23T10:30:03.543Z,101426.66
2022-09-23T10:32:33.690Z,101421.72
2022-09-23T10:35:15.770Z,101414.84
2022-09-23T10:37:48.343Z,101412.63
2022-09-23T10:40:40.653Z,101420.56
2022-09-23T10:43:41.479Z,101409.06
2022-09-23T10:46:36.321Z,101411.34
2022-09-23T10:49:31.095Z,101395.16
2022-09-23T10:52:12.976Z,101396.25
2022-09-23T10:54:52.989Z,101400.28
2022-09-23T10:57:40.726Z,101399.28
2022-09-23T11:00:23.551Z,101399.13
2022-09-23T11:03:25.412Z,101388.75
2022-09-23T11:06:06.559Z,101387.06
2022-09-23T11:09:05.935Z,101389.50
2022-09-23T11:11:44.926Z,101383.78
2022-09-23T11:14:38.868Z,101391.81
2022-09-23T11:17:36.170Z,101393.19
2022-09-23T11:20:22.050Z,101379.25
2022-09-23T11:23:15.550Z,101380.91
2022-09-23T11:25:55.684Z,101389.59
2022-09-23T11:28:48.670Z,101381.91
2022-09-23T11:31:33.042Z,101374.41
2022-09-23T11:34:25.304Z,101372.94
2022-09-23T11:37:01.019Z,101374.53
2022-09-23T11:39:32.203Z,101367.19
2022-09-23T11:42:02.973Z,101372.78
2022-09-23T11:44:34.622Z,101365.72
2022-09-23T11:47:10.740Z,101373.25
2022-09-23T11:49:43.384Z,101367.25
2022-09-23T11:52:19.612Z,101370.34
2022-09-23T11:54:53.113Z,101370.84
2022-09-23T11:57:42.709Z,101358.81
2022-09-23T12:00:19.122Z,101364.59
2022-09-23T12:03:05.458Z,101361.94
2022-09-23T12:05:40.358Z,101356.97
2022-09-23T12:08:17.451Z,101356.06
2022-09-23T12:10:53.330Z,101359.66
2022-09-23T12:13:33.649Z,101363.16
2022-09-23T12:16:18.334Z,101344.91
2022-09-23T12:18:59.202Z,101344.53
2022-09-23T12:21:50.172Z,101347.16
2022-09-23T12:24:34.482Z,101349.94
2022-09-23T12:27:08.434Z,101349.94
2022-09-23T12:29:41.723Z,101345.59
2022-09-23T12:32:18.409Z,101338.88
2022-09-23T12:34:54.271Z,101337.78
2022-09-23T12:37:34.021Z,101335.13
2022-09-23T12:40:10.735Z,101338.63
2022-09-23T12:42:45.875Z,101335.63
2022-09-23T12:48:48.728Z,101331.41
2022-09-23T12:51:22.266Z,101327.31
2022-09-23T12:54:15.399Z,101326.56
2022-09-23T12:57:05.282Z,101336.06
2022-09-23T12:59:55.776Z,101335.97
2022-09-23T13:02:35.166Z,101330.19
2022-09-23T13:05:34.824Z,101326.59
2022-09-23T13:08:06.662Z,101327.84
2022-09-23T13:10:39.973Z,101318.09
2022-09-23T13:13:19.159Z,101332.84
2022-09-23T13:15:47.718Z,101325.47
2022-09-23T13:18:56.805Z,101322.13
2022-09-23T13:22:09.773Z,101315.84
2022-09-23T13:24:48.660Z,101308.16
2022-09-23T13:27:23.604Z,101314.88
2022-09-23T13:29:59.852Z,101304.16
2022-09-23T13:32:34.347Z,101309.66
2022-09-23T13:35:07.092Z,101300.38
2022-09-23T13:37:45.037Z,101301.28
2022-09-23T13:40:21.652Z,101298.00
2022-09-23T13:42:55.432Z,101299.41
2022-09-23T13:45:26.981Z,101301.09
2022-09-23T13:48:00.912Z,101306.66
2022-09-23T13:50:34.701Z,101298.53
2022-09-23T13:53:11.045Z,101281.38
2022-09-23T13:55:41.629Z,101291.41
2022-09-23T13:58:20.476Z,101286.94
2022-09-23T14:00:51.508Z,101292.19
2022-09-23T14:03:24.856Z,101296.75
2022-09-23T14:06:20.623Z,101289.31
2022-09-23T14:08:51.612Z,101284.38
2022-09-23T14:11:21.262Z,101291.09
2022-09-23T14:13:54.827Z,101280.03
2022-09-23T14:16:26.983Z,101290.34
2022-09-23T14:19:00.464Z,101290.09
2022-09-23T14:21:33.975Z,101289.03
2022-09-23T14:24:14.695Z,101287.19
2022-09-23T14:26:44.508Z,101285.56
2022-09-23T14:29:16.825Z,101284.41
2022-09-23T14:31:56.915Z,101270.53
2022-09-23T14:34:47.863Z,101277.34
2022-09-23T14:37:45.926Z,101273.41
2022-09-23T14:40:20.046Z,101265.78
2022-09-23T14:42:52.109Z,101258.63
2022-09-23T14:45:23.004Z,101254.63
2022-09-23T14:47:57.833Z,101278.38
2022-09-23T14:50:47.426Z,101260.84
2022-09-23T14:53:34.406Z,101268.75
2022-09-23T14:56:18.214Z,101281.13
2022-09-23T14:58:52.610Z,101283.06
2022-09-23T15:01:40.506Z,101279.88
2022-09-23T15:04:17.934Z,101263.31
2022-09-23T15:06:54.831Z,101277.25
2022-09-23T15:09:26.076Z,101266.06
2022-09-23T15:11:58.645Z,101279.66
2022-09-23T15:14:39.133Z,101270.38
2022-09-23T15:17:17.729Z,101271.53
2022-09-23T15:19:55.176Z,101266.25
2022-09-23T15:22:24.090Z,101261.41
2022-09-23T15:24:55.323Z,101275.66
2022-09-23T15:27:32.419Z,101276.81
2022-09-23T15:30:15.539Z,101265.81
2022-09-23T15:32:44.322Z,101276.28
2022-09-23T15:35:16.490Z,101273.09
2022-09-23T15:37:46.170Z,101264.78
2022-09-23T15:40:23.808Z,101277.19
2022-09-23T15:42:56.222Z,101273.19
2022-09-23T15:45:31.321Z,101276.56
2022-09-23T15:48:04.123Z,101278.66
2022-09-23T15:50:35.073Z,101266.28
2022-09-23T15:53:02.891Z,101257.75
2022-09-23T15:55:33.616Z,101269.75
2022-09-23T15:58:04.944Z,101270.09
2022-09-23T16:00:34.226Z,101272.66
2022-09-23T16:03:04.048Z,101268.25
2022-09-23T16:05:37.797Z,101262.88
2022-09-23T16:08:09.425Z,101275.50
2022-09-23T16:10:38.479Z,101276.47
2022-09-23T16:13:11.694Z,101256.19
2022-09-23T16:15:41.915Z,101273.50
2022-09-23T16:18:11.429Z,101268.84
2022-09-23T16:20:43.826Z,101259.25
2022-09-23T16:23:34.278Z,101268.25
2022-09-23T16:26:05.644Z,101263.31
2022-09-23T16:28:36.899Z,101266.03
2022-09-23T16:31:04.989Z,101274.97
2022-09-23T16:33:34.723Z,101279.25
2022-09-23T16:36:05.277Z,101276.56
2022-09-23T16:38:33.182Z,101279.56
2022-09-23T16:41:03.182Z,101274.28
2022-09-23T16:43:39.543Z,101265.50
2022-09-23T16:46:08.214Z,101268.13
2022-09-23T16:48:38.139Z,101265.38
2022-09-23T16:51:06.389Z,101274.00
2022-09-23T16:53:34.731Z,101276.09
2022-09-23T16:56:09.401Z,101274.34
2022-09-23T16:58:41.552Z,101277.38
2022-09-23T17:01:32.069Z,101276.41
2022-09-23T17:04:00.139Z,101269.94
2022-09-23T17:06:30.425Z,101268.19
2022-09-23T17:08:58.221Z,101277.34
2022-09-23T17:11:26.124Z,101274.72
2022-09-23T17:13:55.452Z,101279.44
2022-09-23T17:16:25.474Z,101278.66
2022-09-23T17:18:57.564Z,101279.19
2022-09-23T17:21:27.091Z,101274.03
2022-09-23T17:23:55.120Z,101275.13
2022-09-23T17:26:24.047Z,101280.19
2022-09-23T17:28:57.342Z,101276.41
2022-09-23T17:31:26.443Z,101287.97
2022-09-23T17:33:54.592Z,101287.41
2022-09-23T17:36:24.573Z,101294.97
2022-09-23T17:38:54.428Z,101274.47
2022-09-23T17:41:22.567Z,101295.44
2022-09-23T17:43:58.625Z,101299.00
2022-09-23T17:46:28.922Z,101290.06
2022-09-23T17:48:57.092Z,101282.03
2022-09-23T17:51:27.671Z,101283.44
2022-09-23T17:53:57.596Z,101292.03
2022-09-23T17:56:27.044Z,101284.94
2022-09-23T17:58:58.148Z,101295.28
2022-09-23T18:01:28.428Z,101275.59
2022-09-23T18:03:57.490Z,101277.59
2022-09-23T18:06:28.849Z,101275.88
2022-09-23T18:09:01.250Z,101288.63
2022-09-23T18:11:32.903Z,101286.16
2022-09-23T18:14:06.191Z,101285.63
2022-09-23T18:16:39.330Z,101288.75
2022-09-23T18:19:08.833Z,101278.22
2022-09-23T18:21:42.696Z,101290.47
2022-09-23T18:27:03.601Z,101289.47
2022-09-23T18:29:34.566Z,101283.59
2022-09-23T18:32:09.953Z,101294.50
2022-09-23T18:34:40.268Z,101271.78
2022-09-23T18:37:15.737Z,101283.66
2022-09-23T18:39:44.691Z,101275.47
2022-09-23T18:42:17.438Z,101286.00
2022-09-23T18:44:47.915Z,101288.47
2022-09-23T18:47:38.476Z,101282.53
2022-09-23T18:50:26.221Z,101280.25
2022-09-23T18:53:01.174Z,101285.19
2022-09-23T18:55:38.992Z,101287.31
2022-09-23T18:58:12.915Z,101283.41
2022-09-23T19:00:43.495Z,101272.84
2022-09-23T19:03:11.500Z,101280.41
2022-09-23T19:05:43.878Z,101286.03
2022-09-23T19:08:15.259Z,101273.88
2022-09-23T19:10:43.774Z,101279.44
2022-09-23T19:13:12.879Z,101277.81
2022-09-23T19:15:43.111Z,101279.00
2022-09-23T19:18:14.337Z,101270.50
2022-09-23T19:20:51.592Z,101265.81
2022-09-23T19:23:20.849Z,101274.69
2022-09-23T19:25:54.328Z,101265.41
2022-09-23T19:28:25.425Z,101267.75
2022-09-23T19:31:09.908Z,101277.41
2022-09-23T19:33:41.818Z,101275.16
2022-09-23T19:36:10.922Z,101275.28
2022-09-23T19:38:40.782Z,101284.03
2022-09-23T19:41:13.635Z,101266.06
2022-09-23T19:43:48.157Z,101278.22
2022-09-23T19:46:20.608Z,101260.50
2022-09-23T19:48:51.817Z,101263.72
2022-09-23T19:51:22.753Z,101263.03
2022-09-23T19:53:51.224Z,101270.88
2022-09-23T19:56:22.092Z,101257.59
2022-09-23T19:58:52.491Z,101277.13
2022-09-23T20:01:22.545Z,101273.84
2022-09-23T20:03:51.750Z,101269.75
2022-09-23T20:06:22.509Z,101267.28
2022-09-23T20:08:52.785Z,101266.53
2022-09-23T20:11:28.405Z,101265.47
2022-09-23T20:14:01.221Z,101273.28
2022-09-23T20:16:33.029Z,101261.63
2022-09-23T20:19:04.109Z,101262.75
2022-09-23T20:21:35.639Z,101250.88
2022-09-23T20:24:07.034Z,101261.06
2022-09-23T20:26:54.216Z,101255.84
2022-09-23T20:29:22.209Z,101259.00
2022-09-23T20:31:51.552Z,101247.22
2022-09-23T20:34:22.733Z,101234.47
2022-09-23T20:36:52.929Z,101244.06
2022-09-23T20:39:21.268Z,101230.53
2022-09-23T20:41:49.849Z,101235.56
2022-09-23T20:44:20.015Z,101249.72
2022-09-23T20:46:49.036Z,101229.00
2022-09-23T20:49:20.802Z,101239.53
2022-09-23T20:51:49.283Z,101243.50
2022-09-23T20:54:29.340Z,101241.22
2022-09-23T20:56:59.144Z,101244.84
2022-09-23T20:59:27.440Z,101246.22
2022-09-23T21:01:58.268Z,101260.72
2022-09-23T21:04:32.217Z,101248.25
2022-09-23T21:07:01.098Z,101244.13
2022-09-23T21:09:32.163Z,101255.22
2022-09-23T21:12:02.123Z,101250.53
2022-09-23T21:14:31.411Z,101257.31
2022-09-23T21:17:01.325Z,101242.53
2022-09-23T21:19:32.100Z,101251.09
2022-09-23T21:21:59.952Z,101257.09
2022-09-23T21:27:17.922Z,101257.84
2022-09-23T21:29:47.881Z,101254.50
2022-09-23T21:32:15.666Z,101258.16
2022-09-23T21:34:49.318Z,101259.97
2022-09-23T21:37:17.618Z,101254.91
2022-09-23T21:40:08.023Z,101260.59
2022-09-23T21:42:38.176Z,101266.16
2022-09-23T21:45:07.158Z,101264.06
2022-09-23T21:47:37.153Z,101267.06
2022-09-23T21:50:09.717Z,101252.91
2022-09-23T21:52:37.504Z,101264.06
2022-09-23T21:55:08.077Z,101270.81
2022-09-23T21:57:38.311Z,101275.91
2022-09-23T22:00:07.429Z,101282.09
2022-09-23T22:02:41.942Z,101268.19
2022-09-23T22:05:13.448Z,101253.91
2022-09-23T22:07:41.243Z,101269.91
2022-09-23T22:10:11.069Z,101256.34
2022-09-23T22:12:40.923Z,101257.84
2022-09-23T22:15:09.874Z,101265.25
2022-09-23T22:17:40.287Z,101259.81
2022-09-23T22:20:16.070Z,101254.72
2022-09-23T22:22:46.009Z,101242.81
2022-09-23T22:25:13.935Z,101258.22
2022-09-23T22:28:04.262Z,101251.22
2022-09-23T22:30:58.226Z,101250.25
2022-09-23T22:33:28.335Z,101250.97
2022-09-23T22:36:03.816Z,101244.81
2022-09-23T22:38:33.131Z,101249.03
2022-09-23T22:41:03.266Z,101237.09
2022-09-23T22:43:33.447Z,101239.75
2022-09-23T22:46:03.353Z,101250.88
2022-09-23T22:48:33.439Z,101246.66
2022-09-23T22:51:08.769Z,101253.84
2022-09-23T22:53:36.671Z,101247.91
2022-09-23T22:56:06.686Z,101256.63
2022-09-23T22:58:36.549Z,101246.38
2022-09-23T23:01:05.511Z,101242.38
2022-09-23T23:03:35.574Z,101256.19
2022-09-23T23:06:10.316Z,101242.38
2022-09-23T23:08:38.834Z,101242.38
2022-09-23T23:11:13.150Z,101244.00
2022-09-23T23:13:41.961Z,101259.59
2022-09-23T23:16:16.064Z,101249.38
2022-09-23T23:18:45.526Z,101246.63
2022-09-23T23:21:21.824Z,101249.38
2022-09-23T23:23:52.071Z,101252.84
2022-09-23T23:26:25.975Z,101249.16
2022-09-23T23:28:54.695Z,101249.22
2022-09-23T23:31:29.271Z,101251.78
2022-09-23T23:33:57.206Z,101247.84
2022-09-23T23:36:28.328Z,101251.19
2022-09-23T23:38:58.149Z,101242.47
2022-09-23T23:41:25.964Z,101246.75
2022-09-23T23:43:57.926Z,101258.03
2022-09-23T23:46:27.730Z,101251.63
2022-09-23T23:48:56.850Z,101243.75
2022-09-23T23:51:31.943Z,101253.34
2022-09-23T23:54:00.728Z,101239.38
2022-09-23T23:56:31.769Z,101252.84
2022-09-23T23:59:04.532Z,101252.00
